Time;durP1;ratioP1;P1;durP2;ratioP2;P2;SDS_P1;SDS_P2;PMS_P1;PMS_P2;Temp;Humidity;BMP_temperature;BMP_pressure;BME280_temperature;BME280_humidity;BME280_pressure;Samples;Min_cycle;Max_cycle;Signal;HPM_P1;HPM_P2
2022/08/14 00:00:44;;;;;;;3.97;2.65;;;;;;;20.97;87.46;101429.47;5071846;28;20024;-70
2022/08/14 00:03:30;;;;;;;4.38;3.20;;;;;;;20.93;87.94;101429.03;5070960;28;20111;-70
2022/08/14 00:05:57;;;;;;;5.57;3.17;;;;;;;20.89;87.89;101425.09;5068286;28;20029;-70
2022/08/14 00:08:23;;;;;;;4.28;2.55;;;;;;;20.89;88.19;101422.44;5069922;28;20495;-70
2022/08/14 00:10:49;;;;;;;4.78;2.95;;;;;;;20.91;86.90;101416.88;5069193;28;20028;-70
2022/08/14 00:13:18;;;;;;;8.20;4.22;;;;;;;20.78;87.47;101408.81;5073220;28;20396;-70
2022/08/14 00:15:46;;;;;;;3.78;3.28;;;;;;;20.79;87.71;101400.53;5069104;28;20025;-70
2022/08/14 00:18:13;;;;;;;4.15;3.17;;;;;;;20.84;87.18;101416.84;5068964;28;20488;-70
2022/08/14 00:20:41;;;;;;;5.72;3.45;;;;;;;20.84;87.48;101416.84;5068103;28;20054;-70
2022/08/14 00:23:08;;;;;;;4.75;3.05;;;;;;;20.81;86.66;101411.88;5069820;28;20029;-70
2022/08/14 00:25:34;;;;;;;4.07;2.97;;;;;;;20.81;87.10;101406.53;5069000;28;20024;-71
2022/08/14 00:28:01;;;;;;;8.43;3.40;;;;;;;20.85;87.25;101413.13;5068775;28;20036;-70
2022/08/14 00:30:27;;;;;;;4.45;3.80;;;;;;;20.86;86.95;101404.06;5070516;28;20567;-70
2022/08/14 00:32:52;;;;;;;6.40;3.22;;;;;;;20.81;87.07;101392.28;5067956;28;20114;-70
2022/08/14 00:35:18;;;;;;;4.18;3.47;;;;;;;20.90;86.85;101405.28;5067943;28;20048;-70
2022/08/14 00:37:44;;;;;;;4.40;2.60;;;;;;;20.88;87.14;101399.31;5069485;28;20025;-70
2022/08/14 00:40:13;;;;;;;4.97;3.25;;;;;;;20.84;87.14;101400.75;5071334;28;20051;-71
2022/08/14 00:42:39;;;;;;;4.55;2.70;;;;;;;20.86;87.41;101404.06;5072037;28;20016;-70
2022/08/14 00:45:07;;;;;;;4.45;2.80;;;;;;;20.91;86.29;101398.09;5068088;28;20145;-70
2022/08/14 00:47:34;;;;;;;4.68;3.40;;;;;;;20.93;87.50;101402.22;5070669;28;20107;-70
2022/08/14 00:50:01;;;;;;;5.68;4.25;;;;;;;20.84;88.23;101390.03;5067578;28;20388;-71
2022/08/14 00:52:27;;;;;;;5.10;3.25;;;;;;;20.73;88.95;101375.38;5068285;28;20051;-70
2022/08/14 00:54:53;;;;;;;4.07;3.25;;;;;;;20.85;89.14;101390.84;5069433;28;20557;-70
2022/08/14 00:57:22;;;;;;;3.65;3.17;;;;;;;20.80;89.96;101383.41;5070208;28;20499;-70
2022/08/14 00:59:48;;;;;;;4.97;3.67;;;;;;;20.81;89.43;101382.38;5067161;28;20095;-70
2022/08/14 01:02:17;;;;;;;4.93;3.47;;;;;;;20.75;89.00;101376.00;5070216;28;20120;-72
2022/08/14 01:04:44;;;;;;;5.32;3.08;;;;;;;20.82;90.03;101378.69;5071560;28;20017;-72
2022/08/14 01:07:10;;;;;;;4.35;2.80;;;;;;;20.77;90.44;101375.75;5072375;28;20028;-72
2022/08/14 01:09:36;;;;;;;5.18;3.85;;;;;;;20.76;90.58;101382.16;5070760;28;20044;-72
2022/08/14 01:12:04;;;;;;;3.72;3.30;;;;;;;20.74;90.67;101374.31;5075018;28;20361;-72
2022/08/14 01:14:30;;;;;;;5.90;4.43;;;;;;;20.73;91.36;101371.84;5073273;28;20055;-72
2022/08/14 01:16:56;;;;;;;5.47;3.28;;;;;;;20.68;91.52;101374.31;5074504;28;20432;-72
2022/08/14 01:22:12;;;;;;;8.48;3.95;;;;;;;20.64;92.14;101365.84;5043599;28;20492;-72
2022/08/14 01:24:37;;;;;;;6.53;3.90;;;;;;;20.61;92.45;101363.59;5071626;28;20042;-72
2022/08/14 01:27:04;;;;;;;6.00;3.92;;;;;;;20.58;91.47;101363.16;5071646;28;20492;-72
2022/08/14 01:29:36;;;;;;;5.60;4.28;;;;;;;20.61;92.37;101360.06;5072770;28;20082;-71
2022/08/14 01:32:03;;;;;;;5.32;3.65;;;;;;;20.45;91.95;101332.59;5075190;28;20469;-72
2022/08/14 01:34:31;;;;;;;7.82;3.63;;;;;;;20.50;92.80;101340.84;5071664;28;20043;-72
2022/08/14 01:37:00;;;;;;;5.97;4.00;;;;;;;20.55;92.29;101348.28;5071455;28;20500;-72
2022/08/14 01:39:27;;;;;;;6.03;3.88;;;;;;;20.54;93.13;101347.44;5071590;28;20083;-72
2022/08/14 01:41:57;;;;;;;6.32;4.07;;;;;;;20.58;92.27;101347.06;5073834;28;20074;-72
2022/08/14 01:44:24;;;;;;;5.27;3.90;;;;;;;20.59;91.53;101344.19;5076356;28;20117;-72
2022/08/14 01:46:53;;;;;;;4.05;2.88;;;;;;;20.61;91.37;101344.81;5072318;28;20662;-72
2022/08/14 01:49:20;;;;;;;5.13;3.83;;;;;;;20.53;91.06;101328.88;5067796;28;20514;-72
2022/08/14 01:51:47;;;;;;;6.65;4.43;;;;;;;20.63;91.43;101341.94;5070846;28;20692;-72
2022/08/14 01:54:19;;;;;;;5.72;3.80;;;;;;;20.61;91.23;101344.00;5074233;28;20477;-73
2022/08/14 01:56:44;;;;;;;5.90;4.47;;;;;;;20.54;91.52;101336.72;5072207;28;20029;-73
2022/08/14 01:59:20;;;;;;;4.57;3.15;;;;;;;20.51;92.48;101342.50;5073352;28;20086;-73
2022/08/14 02:01:49;;;;;;;5.25;3.83;;;;;;;20.49;92.00;101333.84;5059705;28;20416;-73
2022/08/14 02:04:15;;;;;;;5.82;3.63;;;;;;;20.49;92.52;101333.00;5068519;28;20021;-72
2022/08/14 02:06:41;;;;;;;5.88;3.83;;;;;;;20.45;92.44;101327.22;5068395;28;20031;-72
2022/08/14 02:09:07;;;;;;;7.10;3.85;;;;;;;20.43;92.39;101323.91;5070625;28;20612;-72
2022/08/14 02:11:34;;;;;;;7.93;3.65;;;;;;;20.41;92.53;101312.56;5070284;28;20029;-72
2022/08/14 02:14:18;;;;;;;4.85;3.42;;;;;;;20.43;92.38;101323.91;5070139;28;20039;-71
2022/08/14 02:16:47;;;;;;;6.45;4.72;;;;;;;20.37;92.36;101314.00;5073624;28;20024;-73
2022/08/14 02:19:17;;;;;;;5.30;3.85;;;;;;;20.30;93.83;101323.91;5074933;28;20499;-72
2022/08/14 02:21:44;;;;;;;;;;;;;;;20.25;93.52;101316.47;5074258;28;20028;-73
2022/08/14 02:24:10;;;;;;;8.13;3.97;;;;;;;20.18;93.62;101314.78;5070288;28;19956;-73
2022/08/14 02:26:40;;;;;;;3.92;3.00;;;;;;;20.19;93.82;101311.91;5072046;28;20318;-73
2022/08/14 02:29:12;;;;;;;6.30;3.88;;;;;;;20.14;93.85;101304.50;5071138;28;20016;-73
2022/08/14 02:31:43;;;;;;;5.25;3.45;;;;;;;20.16;94.25;101306.13;5068622;28;20021;-71
2022/08/14 02:34:13;;;;;;;7.13;4.30;;;;;;;20.13;94.03;101305.50;5070029;28;20053;-71
2022/08/14 02:36:40;;;;;;;5.97;4.25;;;;;;;20.16;93.96;101298.09;5070679;28;20028;-71
2022/08/14 02:39:07;;;;;;;7.80;4.75;;;;;;;20.19;93.70;101295.00;5053179;28;20493;-71
2022/08/14 02:41:34;;;;;;;5.50;4.15;;;;;;;20.14;93.80;101295.59;5070336;28;20021;-71
2022/08/14 02:44:01;;;;;;;7.20;4.68;;;;;;;20.16;94.08;101290.03;5069925;28;20101;-71
2022/08/14 02:46:27;;;;;;;6.45;3.75;;;;;;;20.00;91.97;101270.63;5068387;28;20099;-72
2022/08/14 02:48:52;;;;;;;7.03;4.32;;;;;;;20.20;93.36;101291.28;5051784;28;20440;-72
2022/08/14 02:51:18;;;;;;;8.05;4.57;;;;;;;20.13;93.86;101297.47;5068394;28;20476;-72
2022/08/14 02:53:45;;;;;;;7.63;4.18;;;;;;;20.08;93.98;101286.53;5068871;28;20035;-72
2022/08/14 02:56:16;;;;;;;6.25;3.67;;;;;;;20.09;93.89;101290.84;5069443;28;20031;-72
2022/08/14 02:58:47;;;;;;;8.65;4.38;;;;;;;20.07;94.60;101287.53;5073008;28;20074;-72
2022/08/14 03:01:14;;;;;;;8.35;4.20;;;;;;;20.03;93.93;101280.94;5072558;28;20415;-72
2022/08/14 03:03:40;;;;;;;6.80;3.92;;;;;;;20.06;94.10;101280.53;5070301;28;20127;-72
2022/08/14 03:06:08;;;;;;;7.05;4.00;;;;;;;20.08;93.17;101275.81;5067419;28;20439;-72
2022/08/14 03:08:36;;;;;;;5.72;3.55;;;;;;;20.10;93.89;101273.75;5070584;28;20147;-72
2022/08/14 03:11:06;;;;;;;6.50;3.60;;;;;;;20.12;93.66;101271.72;5073688;28;20021;-72
2022/08/14 03:13:46;;;;;;;6.03;4.53;;;;;;;20.10;93.45;101271.09;5069223;28;20086;-72
2022/08/14 03:16:14;;;;;;;5.53;3.95;;;;;;;20.07;93.05;101271.47;5067907;28;20019;-72
2022/08/14 03:18:41;;;;;;;5.20;3.78;;;;;;;20.09;93.08;101265.91;5071308;28;20460;-72
2022/08/14 03:21:13;;;;;;;6.97;4.85;;;;;;;20.03;93.72;101256.81;5069597;28;20096;-72
2022/08/14 03:23:44;;;;;;;6.35;3.97;;;;;;;20.01;93.55;101264.25;5069373;28;20052;-72
2022/08/14 03:26:12;;;;;;;6.43;3.65;;;;;;;19.98;93.88;101253.94;5073265;28;20020;-72
2022/08/14 03:28:41;;;;;;;5.15;3.78;;;;;;;19.98;94.26;101255.78;5073770;28;20039;-72
2022/08/14 03:31:08;;;;;;;5.57;3.13;;;;;;;20.00;92.34;101253.75;5068389;28;20016;-72
2022/08/14 03:33:37;;;;;;;4.00;2.92;;;;;;;19.99;89.69;101247.56;5067950;28;20606;-72
2022/08/14 03:36:07;;;;;;;4.97;3.50;;;;;;;20.02;90.39;101246.31;5070042;28;20028;-72
2022/08/14 03:38:33;;;;;;;6.82;5.07;;;;;;;19.91;92.83;101223.63;5069994;28;20387;-72
2022/08/14 03:40:58;;;;;;;6.30;4.22;;;;;;;19.91;94.04;101245.06;5068639;28;20020;-71
2022/08/14 03:43:23;;;;;;;5.88;4.20;;;;;;;19.85;95.25;101240.50;5075107;28;20404;-72
2022/08/14 03:45:49;;;;;;;4.72;3.63;;;;;;;19.88;92.74;101237.41;5069994;28;20029;-72
2022/08/14 03:48:19;;;;;;;6.25;3.72;;;;;;;19.90;92.63;101232.69;5068231;28;20031;-72
2022/08/14 03:50:46;;;;;;;4.60;3.75;;;;;;;19.91;93.16;101240.53;5069229;28;20489;-72
2022/08/14 03:53:13;;;;;;;3.85;3.22;;;;;;;19.90;93.38;101244.25;5068660;28;20024;-72
2022/08/14 03:55:40;;;;;;;5.05;3.20;;;;;;;19.93;92.34;101235.78;5070791;28;20032;-72
2022/08/14 03:58:06;;;;;;;5.70;3.58;;;;;;;19.93;92.54;101238.47;5070905;28;20049;-72
2022/08/14 04:00:33;;;;;;;5.07;3.75;;;;;;;19.90;92.59;101236.22;5070306;28;20539;-72
2022/08/14 04:02:59;;;;;;;6.65;3.70;;;;;;;19.89;92.17;101226.50;5067830;28;20029;-72
2022/08/14 04:05:24;;;;;;;7.25;4.35;;;;;;;19.86;93.52;101220.72;5070159;28;20032;-72
2022/08/14 04:07:50;;;;;;;8.60;4.28;;;;;;;19.82;94.20;101219.50;5070046;28;20111;-72
2022/08/14 04:10:16;;;;;;;4.95;3.45;;;;;;;19.77;95.39;101216.56;5071613;28;20098;-72
2022/08/14 04:12:41;;;;;;;4.60;3.13;;;;;;;19.61;93.63;101186.44;5069834;28;20024;-72
2022/08/14 04:15:07;;;;;;;5.10;3.63;;;;;;;19.78;93.94;101212.88;5068476;28;20038;-72
2022/08/14 04:17:33;;;;;;;5.38;3.80;;;;;;;19.75;95.28;101222.16;5072759;28;20103;-72
2022/08/14 04:20:02;;;;;;;7.85;4.63;;;;;;;19.68;95.46;101214.03;5072349;28;20123;-72
2022/08/14 04:22:31;;;;;;;5.25;3.40;;;;;;;19.71;96.28;101215.56;5070236;28;20351;-72
2022/08/14 04:24:58;;;;;;;8.40;5.15;;;;;;;19.71;95.98;101213.69;5072121;28;20067;-72
2022/08/14 04:27:25;;;;;;;5.57;4.35;;;;;;;19.59;97.96;101198.38;5069649;28;20081;-72
2022/08/14 04:29:52;;;;;;;7.80;5.53;;;;;;;19.55;98.57;101189.91;5068125;28;20029;-72
2022/08/14 04:32:18;;;;;;;8.43;5.03;;;;;;;19.53;98.60;101192.81;5069377;28;20123;-72
2022/08/14 04:34:43;;;;;;;6.97;4.70;;;;;;;19.62;99.66;101204.16;5067954;28;20131;-72
2022/08/14 04:45:24;;;;;;;8.10;3.95;;;;;;;19.74;98.65;101196.38;5078150;28;20097;-72
2022/08/14 04:50:34;;;;;;;3.83;3.00;;;;;;;19.65;96.50;101193.03;5074348;28;20071;-72
2022/08/14 04:53:00;;;;;;;4.65;3.90;;;;;;;19.85;96.29;101203.81;5039283;28;20048;-72
2022/08/14 04:55:26;;;;;;;7.38;3.63;;;;;;;19.85;97.55;101194.97;5073539;28;20495;-72
2022/08/14 04:57:51;;;;;;;5.90;4.07;;;;;;;19.90;98.19;101206.75;5074455;28;20029;-72
2022/08/14 05:00:17;;;;;;;5.07;3.90;;;;;;;19.90;97.55;101195.19;5075426;28;20217;-74
2022/08/14 05:02:42;;;;;;;6.35;4.13;;;;;;;19.85;97.42;101187.75;5079423;28;20028;-72
2022/08/14 05:05:08;;;;;;;4.93;3.75;;;;;;;19.83;97.23;101195.16;5072125;28;20036;-72
2022/08/14 05:07:33;;;;;;;4.80;3.75;;;;;;;19.99;97.15;101203.84;5056397;28;20050;-72
2022/08/14 05:09:59;;;;;;;3.90;3.33;;;;;;;20.03;96.75;101200.56;5069454;28;20410;-72
2022/08/14 05:12:24;;;;;;;6.45;4.50;;;;;;;20.06;96.59;101200.16;5075319;28;20026;-72
2022/08/14 05:14:49;;;;;;;5.85;3.90;;;;;;;20.09;96.46;101199.75;5072458;28;20024;-72
2022/08/14 05:17:15;;;;;;;7.10;4.18;;;;;;;20.09;96.17;101194.38;5076995;28;20147;-72
2022/08/14 05:19:40;;;;;;;5.38;3.35;;;;;;;20.13;95.99;101187.59;5075242;28;20051;-72
2022/08/14 05:22:06;;;;;;;7.22;3.90;;;;;;;20.12;96.28;101188.63;5070200;28;20029;-72
2022/08/14 05:24:32;;;;;;;10.02;4.60;;;;;;;20.16;96.38;101182.84;5071440;28;20421;-72
2022/08/14 05:26:58;;;;;;;5.53;4.90;;;;;;;20.31;96.59;101207.59;5056208;28;20144;-72
2022/08/14 05:29:25;;;;;;;6.88;4.57;;;;;;;20.34;97.17;101193.81;5071915;28;20034;-72
2022/08/14 05:31:50;;;;;;;4.78;3.72;;;;;;;20.44;97.30;101202.25;5076838;28;20040;-72
2022/08/14 05:34:16;;;;;;;5.30;4.03;;;;;;;20.52;97.29;101203.91;5056990;28;20048;-72
2022/08/14 05:36:41;;;;;;;6.07;4.15;;;;;;;20.61;97.30;101212.59;5072310;28;20107;-72
2022/08/14 05:39:07;;;;;;;8.50;3.72;;;;;;;20.64;96.36;101206.78;5076230;28;20089;-72
2022/08/14 05:41:33;;;;;;;7.18;4.30;;;;;;;20.57;96.42;101189.88;5074488;28;20017;-71
2022/08/14 05:43:59;;;;;;;8.15;4.60;;;;;;;20.73;96.38;101200.19;5069468;28;20036;-71
2022/08/14 05:46:24;;;;;;;5.60;4.70;;;;;;;20.77;96.46;101198.72;5072017;28;20391;-72
2022/08/14 05:48:53;;;;;;;6.85;3.65;;;;;;;20.82;95.42;101201.63;5072153;28;20020;-72
2022/08/14 05:51:19;;;;;;;3.50;3.05;;;;;;;20.91;93.99;101197.69;5073424;28;20036;-72
2022/08/14 05:53:45;;;;;;;7.05;4.05;;;;;;;21.02;94.46;101200.75;5074588;28;20059;-72
2022/08/14 05:56:11;;;;;;;6.13;4.10;;;;;;;21.06;93.31;101199.31;5073965;28;20056;-72
2022/08/14 05:58:36;;;;;;;6.10;4.47;;;;;;;21.15;92.57;101198.03;5072564;28;20076;-72
2022/08/14 06:01:02;;;;;;;4.65;3.75;;;;;;;21.21;91.48;101210.63;5072077;28;20028;-72
2022/08/14 06:03:28;;;;;;;7.32;4.68;;;;;;;21.30;91.61;101212.03;5077435;28;20031;-72
2022/08/14 06:05:55;;;;;;;7.95;4.72;;;;;;;21.30;90.70;101200.47;5071481;28;20907;-73
2022/08/14 06:08:23;;;;;;;5.47;4.32;;;;;;;21.32;90.52;101209.94;5074104;28;20658;-72
2022/08/14 06:10:50;;;;;;;4.75;4.22;;;;;;;21.41;89.67;101204.34;5071580;28;20135;-72
2022/08/14 06:13:17;;;;;;;6.55;4.93;;;;;;;21.58;89.95;101202.84;5071162;28;20024;-72
2022/08/14 06:15:43;;;;;;;11.68;4.68;;;;;;;21.60;88.26;101190.03;5077159;28;20031;-72
2022/08/14 06:18:09;;;;;;;6.50;4.55;;;;;;;21.81;87.90;101188.06;5073073;28;20033;-72
2022/08/14 06:20:35;;;;;;;5.80;4.25;;;;;;;21.90;86.78;101189.44;5075158;28;20469;-72
2022/08/14 06:23:00;;;;;;;5.47;4.10;;;;;;;21.99;85.69;101190.81;5071754;28;20028;-73
2022/08/14 06:25:26;;;;;;;7.35;4.50;;;;;;;22.18;85.12;101192.53;5072647;28;20028;-73
2022/08/14 06:27:52;;;;;;;6.30;4.57;;;;;;;22.38;84.40;101191.59;5072584;28;20047;-72
2022/08/14 06:30:23;;;;;;;5.25;4.32;;;;;;;22.37;82.92;101187.25;5075962;28;20465;-72
2022/08/14 06:32:49;;;;;;;5.18;3.45;;;;;;;22.59;83.08;101182.31;5072599;28;20143;-72
2022/08/14 06:35:17;;;;;;;6.43;4.70;;;;;;;22.81;81.47;101180.00;5072188;28;20362;-73
2022/08/14 06:37:50;;;;;;;5.70;4.47;;;;;;;23.03;80.82;101185.81;5069375;28;20056;-73
2022/08/14 06:40:22;;;;;;;5.20;3.90;;;;;;;23.16;79.76;101182.94;5071884;28;20020;-72
2022/08/14 06:42:47;;;;;;;5.28;3.47;;;;;;;23.16;77.70;101177.56;5070082;28;20075;-72
2022/08/14 06:45:13;;;;;;;4.63;3.67;;;;;;;22.99;77.56;101168.41;5075276;28;20016;-71
2022/08/14 06:47:40;;;;;;;7.22;4.57;;;;;;;22.79;78.03;101171.34;5070390;28;20036;-72
2022/08/14 06:50:09;;;;;;;5.32;3.70;;;;;;;22.68;78.37;101169.38;5069271;28;20036;-73
2022/08/14 06:52:34;;;;;;;5.53;4.28;;;;;;;22.72;78.29;101166.03;5069796;28;20028;-72
2022/08/14 06:55:00;;;;;;;5.15;4.18;;;;;;;23.07;77.48;101170.03;5066813;28;20338;-72
2022/08/14 06:57:34;;;;;;;6.80;3.58;;;;;;;23.39;76.53;101163.41;5068303;28;20119;-72
2022/08/14 07:00:00;;;;;;;5.72;4.18;;;;;;;23.95;74.59;101166.78;5067402;28;20020;-72
2022/08/14 07:07:53;;;;;;;4.82;4.03;;;;;;;25.11;70.29;101168.06;5065734;28;20037;-71
2022/08/14 07:10:21;;;;;;;5.15;3.95;;;;;;;24.95;70.36;101166.94;5073630;28;20553;-71
2022/08/14 07:12:47;;;;;;;4.45;3.38;;;;;;;25.44;70.49;101157.41;5072128;28;20575;-71
2022/08/14 07:15:12;;;;;;;4.43;3.53;;;;;;;25.63;68.98;101162.59;5071077;28;20472;-72
2022/08/14 07:17:48;;;;;;;5.18;3.70;;;;;;;25.48;69.50;101160.47;5071177;28;20092;-72
2022/08/14 07:20:19;;;;;;;5.28;3.30;;;;;;;25.64;70.10;101165.06;5068964;28;20032;-70
2022/08/14 07:22:44;;;;;;;;;;;;;;;26.22;68.17;101170.41;5071825;28;20028;-71
2022/08/14 07:25:10;;;;;;;4.65;3.15;;;;;;;27.15;66.47;101164.38;5071574;28;19919;-71
2022/08/14 07:27:38;;;;;;;5.32;4.25;;;;;;;27.22;65.26;101167.75;5077297;28;20036;-72
2022/08/14 07:30:04;;;;;;;4.72;3.33;;;;;;;26.98;67.23;101165.28;5078017;28;20053;-71
2022/08/14 07:32:29;;;;;;;3.90;3.60;;;;;;;27.87;64.17;101158.69;5076910;28;20522;-71
2022/08/14 07:34:55;;;;;;;3.30;2.83;;;;;;;28.05;62.85;101164.81;5073155;28;20036;-71
2022/08/14 07:37:20;;;;;;;5.40;3.20;;;;;;;28.20;61.46;101167.63;5071994;28;20063;-71
2022/08/14 07:39:45;;;;;;;3.53;2.78;;;;;;;27.60;62.85;101164.09;5072817;28;20117;-71
2022/08/14 07:42:11;;;;;;;4.30;2.85;;;;;;;28.08;62.16;101164.28;5074449;28;20028;-72
2022/08/14 07:44:37;;;;;;;3.95;3.28;;;;;;;27.90;62.19;101162.78;5050592;28;20028;-71
2022/08/14 07:47:03;;;;;;;7.78;3.88;;;;;;;27.66;62.29;101159.56;5067850;28;20028;-71
2022/08/14 07:49:30;;;;;;;4.55;3.22;;;;;;;27.27;64.16;101159.69;5071302;28;20032;-71
2022/08/14 07:51:56;;;;;;;5.07;3.03;;;;;;;27.77;62.03;101157.75;5072424;28;20417;-71
2022/08/14 07:54:22;;;;;;;4.20;3.38;;;;;;;28.16;61.65;101144.81;5073844;28;20043;-71
2022/08/14 07:56:47;;;;;;;4.50;3.55;;;;;;;27.94;61.76;101122.38;5073669;28;20044;-73
2022/08/14 07:59:15;;;;;;;4.53;3.20;;;;;;;27.91;62.01;101148.13;5073812;28;20493;-70
2022/08/14 08:01:42;;;;;;;4.57;3.15;;;;;;;28.29;61.49;101143.53;5068115;28;20424;-71
2022/08/14 08:04:09;;;;;;;4.00;3.03;;;;;;;28.74;59.85;101133.22;5068948;28;20028;-70
2022/08/14 08:06:34;;;;;;;3.25;2.95;;;;;;;28.66;59.93;101143.50;5067063;28;20020;-70
2022/08/14 08:09:01;;;;;;;4.03;3.35;;;;;;;28.50;59.73;101139.91;5069049;28;20511;-71
2022/08/14 08:11:31;;;;;;;5.15;3.42;;;;;;;28.70;60.25;101128.31;5069123;28;20458;-70
2022/08/14 08:13:58;;;;;;;6.13;3.13;;;;;;;29.04;58.66;101137.97;5068878;28;20032;-71
2022/08/14 08:16:24;;;;;;;3.78;2.85;;;;;;;28.91;59.09;101141.97;5066884;28;20017;-70
2022/08/14 08:18:49;;;;;;;2.83;2.47;;;;;;;29.92;56.38;101137.03;5067767;28;20552;-70
2022/08/14 08:21:16;;;;;;;3.40;3.00;;;;;;;29.99;55.79;101142.25;5070556;28;20070;-71
2022/08/14 08:23:41;;;;;;;3.85;2.85;;;;;;;29.63;56.35;101134.84;5068278;28;20036;-71
2022/08/14 08:26:07;;;;;;;3.20;2.90;;;;;;;30.24;55.67;101134.03;5069015;28;20024;-71
2022/08/14 08:28:32;;;;;;;3.33;2.90;;;;;;;30.17;55.51;101132.69;5075740;28;20096;-70
2022/08/14 08:31:04;;;;;;;5.28;2.55;;;;;;;30.49;55.33;101130.47;5076022;28;20032;-70
2022/08/14 08:33:31;;;;;;;2.55;2.20;;;;;;;30.85;55.04;101126.78;5070168;28;20044;-70
2022/08/14 08:36:06;;;;;;;3.85;2.92;;;;;;;30.34;54.91;101134.03;5067871;28;20104;-70
2022/08/14 08:38:32;;;;;;;2.78;2.28;;;;;;;31.05;53.81;101118.53;5064896;28;20020;-70
2022/08/14 08:41:00;;;;;;;2.85;2.55;;;;;;;31.44;53.47;101128.69;5071494;28;20031;-70
2022/08/14 08:43:28;;;;;;;5.30;3.10;;;;;;;31.72;51.72;101129.03;5071512;28;20579;-70
2022/08/14 08:45:59;;;;;;;2.67;2.45;;;;;;;32.53;51.13;101132.09;5069715;28;20280;-69
2022/08/14 08:48:28;;;;;;;3.95;2.75;;;;;;;31.76;51.56;101116.44;5067300;28;20445;-69
2022/08/14 08:50:58;;;;;;;3.28;2.28;;;;;;;32.16;51.26;101119.91;5068226;28;20025;-69
2022/08/14 08:53:29;;;;;;;;;;;;;;;32.81;50.74;101115.91;5071382;28;20108;-69
2022/08/14 08:55:55;;;;;;;4.40;3.10;;;;;;;32.87;49.60;101120.22;5084383;28;19908;-68
2022/08/14 08:58:21;;;;;;;4.10;2.83;;;;;;;32.44;50.67;101115.50;5071829;28;20397;-68
2022/08/14 09:00:50;;;;;;;5.15;2.85;;;;;;;31.27;52.86;101107.25;5067807;28;20396;-68
2022/08/14 09:03:19;;;;;;;2.80;2.40;;;;;;;32.20;51.33;101104.56;5066729;28;20025;-68
2022/08/14 09:06:02;;;;;;;3.00;2.70;;;;;;;32.44;50.35;101101.03;5068722;28;20025;-68
2022/08/14 09:08:30;;;;;;;3.05;2.50;;;;;;;32.08;51.00;101093.25;5070946;28;20496;-69
2022/08/14 09:10:58;;;;;;;4.75;2.50;;;;;;;32.97;49.18;101090.03;5071089;28;20031;-69
2022/08/14 09:13:25;;;;;;;3.58;2.22;;;;;;;32.42;49.57;101075.94;5066125;28;20028;-69
2022/08/14 09:15:52;;;;;;;3.50;2.65;;;;;;;31.84;50.85;101065.91;5066074;28;20031;-68
2022/08/14 09:18:18;;;;;;;4.18;2.42;;;;;;;32.36;49.65;101062.34;5070772;28;20021;-68
2022/08/14 09:20:48;;;;;;;3.92;2.70;;;;;;;32.38;48.79;101071.06;5072889;28;20016;-69
2022/08/14 09:23:14;;;;;;;3.58;2.78;;;;;;;32.79;49.04;101076.03;5078076;28;20056;-69
2022/08/14 09:25:43;;;;;;;3.35;2.50;;;;;;;33.10;48.28;101075.63;5070151;28;20055;-69
2022/08/14 09:28:09;;;;;;;3.00;2.03;;;;;;;32.99;48.35;101068.63;5088111;28;20038;-69
2022/08/14 09:30:37;;;;;;;2.60;2.33;;;;;;;33.57;48.23;101073.78;5077839;28;20020;-69
2022/08/14 09:33:18;;;;;;;2.58;2.20;;;;;;;33.73;47.92;101065.31;5078998;28;20504;-69
2022/08/14 09:36:00;;;;;;;2.90;2.55;;;;;;;33.14;48.58;101059.44;5068425;28;20081;-69
2022/08/14 09:38:40;;;;;;;2.50;2.30;;;;;;;33.84;47.19;101055.00;5071368;28;20074;-69
2022/08/14 09:41:39;;;;;;;3.33;2.80;;;;;;;33.14;48.61;101049.31;5074726;28;20028;-69
2022/08/14 09:44:10;;;;;;;3.33;2.50;;;;;;;33.02;49.12;101045.38;5071773;28;20029;-69
2022/08/14 09:46:35;;;;;;;4.47;2.60;;;;;;;33.84;47.72;101038.56;5072751;28;20422;-69
2022/08/14 09:49:04;;;;;;;2.63;2.35;;;;;;;33.46;47.97;101034.03;5072236;28;20025;-69
2022/08/14 09:51:31;;;;;;;4.35;2.90;;;;;;;33.48;47.84;101047.41;5073038;28;20480;-69
2022/08/14 09:54:05;;;;;;;3.30;2.50;;;;;;;34.05;47.92;101047.22;5080345;28;20028;-70
2022/08/14 09:56:48;;;;;;;2.50;2.28;;;;;;;34.60;46.79;101028.84;5070102;28;20036;-69
2022/08/14 09:59:20;;;;;;;4.30;3.10;;;;;;;33.60;47.79;101056.81;5072756;28;20292;-69
2022/08/14 10:01:47;;;;;;;5.55;2.67;;;;;;;33.83;47.07;101056.13;5070167;28;20042;-70
2022/08/14 10:04:24;;;;;;;6.50;2.78;;;;;;;33.60;47.98;101051.31;5071655;28;20110;-70
2022/08/14 10:06:50;;;;;;;5.75;2.90;;;;;;;33.37;48.11;101046.75;5069655;28;20028;-69
2022/08/14 10:09:17;;;;;;;3.60;3.10;;;;;;;33.11;48.38;101049.09;5074760;28;20400;-70
2022/08/14 10:11:54;;;;;;;4.07;3.13;;;;;;;33.28;48.50;101030.22;5070547;28;20033;-69
2022/08/14 10:14:23;;;;;;;3.20;2.85;;;;;;;35.12;46.12;101039.44;5070041;28;20664;-70
2022/08/14 10:16:54;;;;;;;2.93;2.60;;;;;;;34.97;45.53;101023.38;5072306;28;20499;-69
2022/08/14 10:19:22;;;;;;;13.43;2.90;;;;;;;35.23;45.60;101013.44;5071719;28;20286;-69
2022/08/14 10:22:09;;;;;;;2.53;2.33;;;;;;;35.25;45.23;100998.59;5073439;28;20107;-69
2022/08/14 10:24:40;;;;;;;2.50;2.25;;;;;;;34.53;45.39;101006.50;5070619;28;20085;-69
2022/08/14 10:27:17;;;;;;;3.22;2.28;;;;;;;33.97;46.99;100996.69;5069534;28;20028;-69
2022/08/14 10:29:48;;;;;;;4.10;2.78;;;;;;;34.12;47.01;100996.41;5067642;28;20028;-69
2022/08/14 10:32:14;;;;;;;3.17;2.53;;;;;;;34.09;46.61;100996.22;5068298;28;20048;-69
2022/08/14 10:34:40;;;;;;;3.45;3.15;;;;;;;33.96;47.01;100997.84;5068242;28;20089;-69
2022/08/14 10:37:16;;;;;;;3.58;3.28;;;;;;;33.65;47.09;100995.69;5071253;28;20027;-70
2022/08/14 10:39:44;;;;;;;4.22;2.63;;;;;;;34.49;46.44;100999.22;5070219;28;20029;-70
2022/08/14 10:42:13;;;;;;;3.35;3.05;;;;;;;34.01;46.59;100982.13;5073589;28;20070;-69
2022/08/14 10:44:48;;;;;;;4.03;2.60;;;;;;;34.53;47.41;100979.09;5073839;28;20024;-71
2022/08/14 10:47:16;;;;;;;3.33;2.05;;;;;;;35.22;45.82;100983.56;5078422;28;20373;-70
2022/08/14 10:49:55;;;;;;;3.73;2.80;;;;;;;35.39;45.41;100982.88;5077443;28;20384;-71
2022/08/14 10:52:23;;;;;;;5.03;3.00;;;;;;;36.72;42.88;100987.34;5082322;28;20065;-70
2022/08/14 10:54:50;;;;;;;4.05;2.67;;;;;;;33.70;47.22;100978.34;5078528;28;20025;-70
2022/08/14 10:57:23;;;;;;;2.83;2.38;;;;;;;34.17;46.84;100968.94;5078602;28;20412;-70
2022/08/14 10:59:54;;;;;;;3.20;2.90;;;;;;;34.04;46.42;100957.97;5073311;28;20023;-70
2022/08/14 11:02:30;;;;;;;3.42;2.88;;;;;;;34.10;46.48;100964.97;5070717;28;20043;-70
2022/08/14 11:05:04;;;;;;;3.63;2.45;;;;;;;34.44;46.14;100953.56;5073196;28;20060;-70
2022/08/14 11:07:31;;;;;;;5.43;2.90;;;;;;;35.16;44.54;100960.13;5074982;28;20043;-70
2022/08/14 11:10:02;;;;;;;3.75;2.90;;;;;;;34.38;44.92;100949.31;5072000;28;20033;-70
2022/08/14 11:12:39;;;;;;;4.07;2.40;;;;;;;34.38;45.62;100936.41;5074512;28;20024;-70
2022/08/14 11:15:05;;;;;;;3.63;2.83;;;;;;;34.05;47.43;100943.16;5074464;28;20394;-71
2022/08/14 11:17:32;;;;;;;2.60;2.33;;;;;;;35.23;47.19;100933.91;5070229;28;20073;-71
2022/08/14 11:19:59;;;;;;;5.03;2.80;;;;;;;36.10;43.60;100941.63;5074979;28;20158;-70
2022/08/14 11:22:27;;;;;;;4.10;2.78;;;;;;;36.34;44.01;100930.22;5075202;28;20021;-70
2022/08/14 11:24:55;;;;;;;4.13;2.85;;;;;;;35.13;43.69;100933.34;5076659;28;20115;-71
2022/08/14 11:27:24;;;;;;;4.43;3.28;;;;;;;34.42;44.83;100931.16;5076186;28;20038;-71
2022/08/14 11:29:49;;;;;;;3.05;2.72;;;;;;;34.04;45.84;100927.84;5068404;28;20043;-70
2022/08/14 11:32:18;;;;;;;5.68;3.00;;;;;;;34.33;44.90;100925.59;5069295;28;20052;-70
2022/08/14 11:34:45;;;;;;;5.80;2.73;;;;;;;34.74;44.24;100924.66;5072781;28;20114;-70
2022/08/14 11:37:11;;;;;;;3.03;2.25;;;;;;;35.56;43.44;100917.09;5069105;28;20032;-70
2022/08/14 11:39:36;;;;;;;3.38;2.88;;;;;;;35.23;43.75;100919.34;5068490;28;20020;-70
2022/08/14 11:42:17;;;;;;;5.93;2.67;;;;;;;35.81;43.02;100910.06;5068123;28;20729;-70
2022/08/14 11:44:43;;;;;;;3.05;2.60;;;;;;;35.29;43.93;100907.13;5067796;28;20056;-70
2022/08/14 11:47:17;;;;;;;3.83;3.15;;;;;;;35.93;42.58;100905.91;5055195;28;20567;-70
2022/08/14 11:49:42;;;;;;;4.35;2.83;;;;;;;35.17;43.51;100893.16;5062571;28;20495;-70